sensor_id;sensor_type;location;lat;lon;timestamp;temperature;humidity
15298;DHT22;7750;48.796;9.026;2022-12-07T00:03:19;7.80;81.20
15298;DHT22;7750;48.796;9.026;2022-12-07T00:08:20;7.80;81.20
15298;DHT22;7750;48.796;9.026;2022-12-07T00:13:20;7.80;81.10
15298;DHT22;7750;48.796;9.026;2022-12-07T00:18:21;7.80;80.90
15298;DHT22;7750;48.796;9.026;2022-12-07T00:23:22;7.80;80.90
15298;DHT22;7750;48.796;9.026;2022-12-07T00:28:22;7.80;80.50
15298;DHT22;7750;48.796;9.026;2022-12-07T00:33:23;7.70;80.30
15298;DHT22;7750;48.796;9.026;2022-12-07T00:38:24;7.80;80.40
15298;DHT22;7750;48.796;9.026;2022-12-07T00:43:25;7.80;80.50
15298;DHT22;7750;48.796;9.026;2022-12-07T00:48:52;7.80;80.40
15298;DHT22;7750;48.796;9.026;2022-12-07T00:53:56;7.80;79.90
15298;DHT22;7750;48.796;9.026;2022-12-07T00:59:02;7.80;80.20
15298;DHT22;7750;48.796;9.026;2022-12-07T01:04:26;7.80;80.30
15298;DHT22;7750;48.796;9.026;2022-12-07T01:19:50;7.80;80.30
15298;DHT22;7750;48.796;9.026;2022-12-07T01:25:02;7.80;80.00
15298;DHT22;7750;48.796;9.026;2022-12-07T01:30:27;7.80;80.00
15298;DHT22;7750;48.796;9.026;2022-12-07T01:35:56;7.80;80.10
15298;DHT22;7750;48.796;9.026;2022-12-07T01:41:12;7.80;80.00
15298;DHT22;7750;48.796;9.026;2022-12-07T01:46:56;7.80;79.80
15298;DHT22;7750;48.796;9.026;2022-12-07T01:52:29;7.80;79.70
15298;DHT22;7750;48.796;9.026;2022-12-07T01:57:42;7.80;79.80
15298;DHT22;7750;48.796;9.026;2022-12-07T02:08:46;7.80;79.70
15298;DHT22;7750;48.796;9.026;2022-12-07T02:13:47;7.70;79.70
15298;DHT22;7750;48.796;9.026;2022-12-07T02:35:11;7.70;79.70
15298;DHT22;7750;48.796;9.026;2022-12-07T02:45:59;7.70;79.60
15298;DHT22;7750;48.796;9.026;2022-12-07T02:51:02;7.70;79.50
15298;DHT22;7750;48.796;9.026;2022-12-07T03:30:30;7.40;79.50
15298;DHT22;7750;48.796;9.026;2022-12-07T03:41:11;7.30;79.50
15298;DHT22;7750;48.796;9.026;2022-12-07T03:46:50;7.30;79.80
15298;DHT22;7750;48.796;9.026;2022-12-07T03:57:24;7.20;79.80
15298;DHT22;7750;48.796;9.026;2022-12-07T04:02:56;7.20;79.90
15298;DHT22;7750;48.796;9.026;2022-12-07T04:08:23;7.20;79.80
15298;DHT22;7750;48.796;9.026;2022-12-07T04:18:47;7.20;80.00
15298;DHT22;7750;48.796;9.026;2022-12-07T04:23:50;7.20;79.90
15298;DHT22;7750;48.796;9.026;2022-12-07T04:28:53;7.20;79.70
15298;DHT22;7750;48.796;9.026;2022-12-07T04:33:54;7.20;79.50
15298;DHT22;7750;48.796;9.026;2022-12-07T04:38:55;7.20;80.00
15298;DHT22;7750;48.796;9.026;2022-12-07T04:44:00;7.10;79.40
15298;DHT22;7750;48.796;9.026;2022-12-07T04:49:01;7.10;78.80
15298;DHT22;7750;48.796;9.026;2022-12-07T04:54:02;7.00;78.00
15298;DHT22;7750;48.796;9.026;2022-12-07T04:59:03;7.00;78.10
15298;DHT22;7750;48.796;9.026;2022-12-07T05:04:07;7.00;78.20
15298;DHT22;7750;48.796;9.026;2022-12-07T05:09:30;6.90;77.70
15298;DHT22;7750;48.796;9.026;2022-12-07T05:14:46;6.90;77.70
15298;DHT22;7750;48.796;9.026;2022-12-07T05:20:07;7.00;77.70
15298;DHT22;7750;48.796;9.026;2022-12-07T05:25:18;7.00;77.30
15298;DHT22;7750;48.796;9.026;2022-12-07T05:30:23;6.90;76.90
15298;DHT22;7750;48.796;9.026;2022-12-07T05:35:33;6.90;77.00
15298;DHT22;7750;48.796;9.026;2022-12-07T05:40:38;6.80;77.00
15298;DHT22;7750;48.796;9.026;2022-12-07T05:45:50;6.70;76.80
15298;DHT22;7750;48.796;9.026;2022-12-07T05:56:40;6.60;77.00
15298;DHT22;7750;48.796;9.026;2022-12-07T06:01:46;6.50;77.20
15298;DHT22;7750;48.796;9.026;2022-12-07T06:06:49;6.60;77.50
15298;DHT22;7750;48.796;9.026;2022-12-07T06:12:08;6.50;77.40
15298;DHT22;7750;48.796;9.026;2022-12-07T06:17:28;6.60;77.50
15298;DHT22;7750;48.796;9.026;2022-12-07T06:22:31;6.60;77.30
15298;DHT22;7750;48.796;9.026;2022-12-07T06:27:32;6.60;77.60
15298;DHT22;7750;48.796;9.026;2022-12-07T06:32:33;6.60;77.70
15298;DHT22;7750;48.796;9.026;2022-12-07T06:37:34;6.60;77.30
15298;DHT22;7750;48.796;9.026;2022-12-07T06:42:35;6.60;76.40
15298;DHT22;7750;48.796;9.026;2022-12-07T06:47:35;6.50;76.30
15298;DHT22;7750;48.796;9.026;2022-12-07T06:52:37;6.50;76.50
15298;DHT22;7750;48.796;9.026;2022-12-07T06:57:37;6.40;76.40
15298;DHT22;7750;48.796;9.026;2022-12-07T07:02:38;6.40;76.10
15298;DHT22;7750;48.796;9.026;2022-12-07T07:07:38;6.30;76.10
15298;DHT22;7750;48.796;9.026;2022-12-07T07:12:39;6.30;76.10
15298;DHT22;7750;48.796;9.026;2022-12-07T07:17:40;6.30;76.20
15298;DHT22;7750;48.796;9.026;2022-12-07T07:22:40;6.20;76.40
15298;DHT22;7750;48.796;9.026;2022-12-07T07:27:41;6.30;76.50
15298;DHT22;7750;48.796;9.026;2022-12-07T07:32:42;6.30;76.30
15298;DHT22;7750;48.796;9.026;2022-12-07T07:37:42;6.30;76.00
15298;DHT22;7750;48.796;9.026;2022-12-07T07:42:43;6.40;76.30
15298;DHT22;7750;48.796;9.026;2022-12-07T07:47:44;6.40;76.30
15298;DHT22;7750;48.796;9.026;2022-12-07T07:52:45;6.50;76.00
15298;DHT22;7750;48.796;9.026;2022-12-07T07:57:45;6.50;76.20
15298;DHT22;7750;48.796;9.026;2022-12-07T08:02:46;6.50;75.70
15298;DHT22;7750;48.796;9.026;2022-12-07T08:07:47;6.60;75.40
15298;DHT22;7750;48.796;9.026;2022-12-07T08:12:47;6.60;75.30
15298;DHT22;7750;48.796;9.026;2022-12-07T08:18:07;6.60;75.70
15298;DHT22;7750;48.796;9.026;2022-12-07T08:23:08;6.60;75.60
15298;DHT22;7750;48.796;9.026;2022-12-07T08:28:10;6.70;74.70
15298;DHT22;7750;48.796;9.026;2022-12-07T08:33:11;6.70;74.80
15298;DHT22;7750;48.796;9.026;2022-12-07T08:38:11;6.70;74.80
15298;DHT22;7750;48.796;9.026;2022-12-07T08:43:12;6.80;74.70
15298;DHT22;7750;48.796;9.026;2022-12-07T08:48:13;6.80;74.70
15298;DHT22;7750;48.796;9.026;2022-12-07T08:53:14;7.00;75.20
15298;DHT22;7750;48.796;9.026;2022-12-07T08:58:16;7.00;73.80
15298;DHT22;7750;48.796;9.026;2022-12-07T09:03:16;7.10;73.60
15298;DHT22;7750;48.796;9.026;2022-12-07T09:08:17;7.10;73.00
15298;DHT22;7750;48.796;9.026;2022-12-07T09:13:18;7.10;72.60
15298;DHT22;7750;48.796;9.026;2022-12-07T09:18:18;7.10;72.50
15298;DHT22;7750;48.796;9.026;2022-12-07T09:23:19;7.20;72.80
15298;DHT22;7750;48.796;9.026;2022-12-07T09:28:19;7.30;73.30
15298;DHT22;7750;48.796;9.026;2022-12-07T09:33:20;7.50;72.00
15298;DHT22;7750;48.796;9.026;2022-12-07T09:38:21;7.50;72.30
15298;DHT22;7750;48.796;9.026;2022-12-07T09:43:24;7.50;72.90
15298;DHT22;7750;48.796;9.026;2022-12-07T09:48:34;7.50;72.50
15298;DHT22;7750;48.796;9.026;2022-12-07T09:53:39;7.60;73.10
15298;DHT22;7750;48.796;9.026;2022-12-07T09:58:40;7.70;73.10
15298;DHT22;7750;48.796;9.026;2022-12-07T10:09:12;7.80;72.50
15298;DHT22;7750;48.796;9.026;2022-12-07T10:14:13;7.80;73.60
15298;DHT22;7750;48.796;9.026;2022-12-07T10:24:23;8.00;72.60
15298;DHT22;7750;48.796;9.026;2022-12-07T10:29:33;8.00;73.30
15298;DHT22;7750;48.796;9.026;2022-12-07T10:34:37;8.10;73.40
15298;DHT22;7750;48.796;9.026;2022-12-07T10:39:52;8.10;72.90
15298;DHT22;7750;48.796;9.026;2022-12-07T10:45:29;8.10;73.10
15298;DHT22;7750;48.796;9.026;2022-12-07T10:50:47;8.20;72.90
15298;DHT22;7750;48.796;9.026;2022-12-07T10:56:06;8.20;73.70
15298;DHT22;7750;48.796;9.026;2022-12-07T11:06:29;8.30;73.40
15298;DHT22;7750;48.796;9.026;2022-12-07T11:11:38;8.40;73.50
15298;DHT22;7750;48.796;9.026;2022-12-07T11:17:10;8.40;73.50
15298;DHT22;7750;48.796;9.026;2022-12-07T11:27:51;8.40;73.50
15298;DHT22;7750;48.796;9.026;2022-12-07T11:38:22;8.40;74.30
15298;DHT22;7750;48.796;9.026;2022-12-07T11:43:28;8.40;74.20
15298;DHT22;7750;48.796;9.026;2022-12-07T11:48:38;8.40;74.50
15298;DHT22;7750;48.796;9.026;2022-12-07T11:53:52;8.40;74.30
15298;DHT22;7750;48.796;9.026;2022-12-07T11:58:57;8.40;74.50
15298;DHT22;7750;48.796;9.026;2022-12-07T12:20:17;8.30;74.50
15298;DHT22;7750;48.796;9.026;2022-12-07T12:30:42;8.20;74.20
15298;DHT22;7750;48.796;9.026;2022-12-07T12:35:43;8.20;74.60
15298;DHT22;7750;48.796;9.026;2022-12-07T12:40:44;8.20;74.50
15298;DHT22;7750;48.796;9.026;2022-12-07T12:45:45;8.10;74.30
15298;DHT22;7750;48.796;9.026;2022-12-07T12:50:45;8.10;74.30
15298;DHT22;7750;48.796;9.026;2022-12-07T12:56:07;8.20;74.50
15298;DHT22;7750;48.796;9.026;2022-12-07T13:06:36;8.20;73.90
15298;DHT22;7750;48.796;9.026;2022-12-07T13:11:42;8.20;74.40
15298;DHT22;7750;48.796;9.026;2022-12-07T13:16:44;8.20;74.10
15298;DHT22;7750;48.796;9.026;2022-12-07T13:21:45;8.30;74.10
15298;DHT22;7750;48.796;9.026;2022-12-07T13:26:45;8.20;74.00
15298;DHT22;7750;48.796;9.026;2022-12-07T13:31:54;8.20;74.20
15298;DHT22;7750;48.796;9.026;2022-12-07T13:36:56;8.30;73.90
15298;DHT22;7750;48.796;9.026;2022-12-07T13:41:58;8.30;73.90
15298;DHT22;7750;48.796;9.026;2022-12-07T13:47:35;8.30;74.00
15298;DHT22;7750;48.796;9.026;2022-12-07T13:52:43;8.30;74.30
15298;DHT22;7750;48.796;9.026;2022-12-07T13:57:47;8.20;74.50
15298;DHT22;7750;48.796;9.026;2022-12-07T14:03:03;8.20;74.00
15298;DHT22;7750;48.796;9.026;2022-12-07T14:13:29;8.30;74.20
15298;DHT22;7750;48.796;9.026;2022-12-07T14:18:37;8.30;74.20
15298;DHT22;7750;48.796;9.026;2022-12-07T14:23:39;8.30;74.00
15298;DHT22;7750;48.796;9.026;2022-12-07T14:28:41;8.40;73.70
15298;DHT22;7750;48.796;9.026;2022-12-07T14:33:42;8.40;73.60
15298;DHT22;7750;48.796;9.026;2022-12-07T14:38:43;8.30;73.70
15298;DHT22;7750;48.796;9.026;2022-12-07T14:43:44;8.30;73.80
15298;DHT22;7750;48.796;9.026;2022-12-07T14:48:44;8.20;73.80
15298;DHT22;7750;48.796;9.026;2022-12-07T14:53:48;8.20;73.70
15298;DHT22;7750;48.796;9.026;2022-12-07T14:58:50;8.20;73.50
15298;DHT22;7750;48.796;9.026;2022-12-07T15:03:51;8.10;73.50
15298;DHT22;7750;48.796;9.026;2022-12-07T15:08:51;8.10;73.70
15298;DHT22;7750;48.796;9.026;2022-12-07T15:13:52;8.10;73.80
15298;DHT22;7750;48.796;9.026;2022-12-07T15:19:19;8.10;73.80
15298;DHT22;7750;48.796;9.026;2022-12-07T15:24:23;8.00;73.80
15298;DHT22;7750;48.796;9.026;2022-12-07T15:29:24;8.00;73.80
15298;DHT22;7750;48.796;9.026;2022-12-07T15:34:26;7.90;73.80
15298;DHT22;7750;48.796;9.026;2022-12-07T15:39:28;7.90;74.10
15298;DHT22;7750;48.796;9.026;2022-12-07T15:44:29;7.80;74.30
15298;DHT22;7750;48.796;9.026;2022-12-07T15:49:48;7.80;74.40
15298;DHT22;7750;48.796;9.026;2022-12-07T15:54:49;7.70;74.40
15298;DHT22;7750;48.796;9.026;2022-12-07T15:59:49;7.70;74.50
15298;DHT22;7750;48.796;9.026;2022-12-07T16:04:51;7.60;74.60
15298;DHT22;7750;48.796;9.026;2022-12-07T16:09:51;7.50;74.60
15298;DHT22;7750;48.796;9.026;2022-12-07T16:14:52;7.50;74.60
15298;DHT22;7750;48.796;9.026;2022-12-07T16:19:53;7.40;74.80
15298;DHT22;7750;48.796;9.026;2022-12-07T16:24:53;7.40;75.40
15298;DHT22;7750;48.796;9.026;2022-12-07T16:29:54;7.40;74.80
15298;DHT22;7750;48.796;9.026;2022-12-07T16:34:55;7.30;74.90
15298;DHT22;7750;48.796;9.026;2022-12-07T16:39:55;7.30;75.00
15298;DHT22;7750;48.796;9.026;2022-12-07T16:44:56;7.30;75.20
15298;DHT22;7750;48.796;9.026;2022-12-07T16:49:56;7.30;75.30
15298;DHT22;7750;48.796;9.026;2022-12-07T16:54:57;7.30;75.20
15298;DHT22;7750;48.796;9.026;2022-12-07T16:59:57;7.30;75.20
15298;DHT22;7750;48.796;9.026;2022-12-07T17:04:58;7.30;75.30
15298;DHT22;7750;48.796;9.026;2022-12-07T17:09:59;7.30;75.20
15298;DHT22;7750;48.796;9.026;2022-12-07T17:14:59;7.20;75.20
15298;DHT22;7750;48.796;9.026;2022-12-07T17:20:19;7.20;75.30
15298;DHT22;7750;48.796;9.026;2022-12-07T17:25:20;7.10;75.20
15298;DHT22;7750;48.796;9.026;2022-12-07T17:30:21;7.00;75.00
15298;DHT22;7750;48.796;9.026;2022-12-07T17:35:21;6.90;75.60
15298;DHT22;7750;48.796;9.026;2022-12-07T17:40:22;6.90;75.80
15298;DHT22;7750;48.796;9.026;2022-12-07T17:45:23;7.60;74.80
15298;DHT22;7750;48.796;9.026;2022-12-07T17:50:23;7.20;75.00
15298;DHT22;7750;48.796;9.026;2022-12-07T17:55:44;7.10;75.60
15298;DHT22;7750;48.796;9.026;2022-12-07T18:00:45;7.00;75.80
15298;DHT22;7750;48.796;9.026;2022-12-07T18:05:45;7.00;76.20
15298;DHT22;7750;48.796;9.026;2022-12-07T18:10:48;6.90;76.40
15298;DHT22;7750;48.796;9.026;2022-12-07T18:15:55;6.90;76.50
15298;DHT22;7750;48.796;9.026;2022-12-07T18:20:56;6.80;76.60
15298;DHT22;7750;48.796;9.026;2022-12-07T18:25:57;6.90;76.60
15298;DHT22;7750;48.796;9.026;2022-12-07T18:30:57;6.80;76.70
15298;DHT22;7750;48.796;9.026;2022-12-07T18:35:59;6.80;76.70
15298;DHT22;7750;48.796;9.026;2022-12-07T18:41:01;6.70;76.50
15298;DHT22;7750;48.796;9.026;2022-12-07T18:46:09;6.70;76.70
15298;DHT22;7750;48.796;9.026;2022-12-07T18:51:12;6.70;76.80
15298;DHT22;7750;48.796;9.026;2022-12-07T18:56:19;6.70;76.80
15298;DHT22;7750;48.796;9.026;2022-12-07T19:01:20;6.70;76.70
15298;DHT22;7750;48.796;9.026;2022-12-07T19:06:21;6.70;76.70
15298;DHT22;7750;48.796;9.026;2022-12-07T19:11:26;6.70;76.70
15298;DHT22;7750;48.796;9.026;2022-12-07T19:16:46;6.70;76.70
15298;DHT22;7750;48.796;9.026;2022-12-07T19:21:49;6.70;76.80
15298;DHT22;7750;48.796;9.026;2022-12-07T19:26:51;6.70;76.90
15298;DHT22;7750;48.796;9.026;2022-12-07T19:31:51;6.70;76.90
15298;DHT22;7750;48.796;9.026;2022-12-07T19:36:52;6.70;76.70
15298;DHT22;7750;48.796;9.026;2022-12-07T19:41:52;6.70;76.50
15298;DHT22;7750;48.796;9.026;2022-12-07T19:46:56;6.70;77.00
15298;DHT22;7750;48.796;9.026;2022-12-07T19:52:05;6.70;76.60
15298;DHT22;7750;48.796;9.026;2022-12-07T19:57:06;6.70;76.60
15298;DHT22;7750;48.796;9.026;2022-12-07T20:02:12;6.70;76.40
15298;DHT22;7750;48.796;9.026;2022-12-07T20:07:13;6.70;76.20
15298;DHT22;7750;48.796;9.026;2022-12-07T20:12:14;6.70;76.10
15298;DHT22;7750;48.796;9.026;2022-12-07T20:17:33;6.70;76.00
15298;DHT22;7750;48.796;9.026;2022-12-07T20:22:33;6.70;75.90
15298;DHT22;7750;48.796;9.026;2022-12-07T20:27:34;6.70;76.50
15298;DHT22;7750;48.796;9.026;2022-12-07T20:32:34;6.70;75.90
15298;DHT22;7750;48.796;9.026;2022-12-07T20:37:35;6.70;75.90
15298;DHT22;7750;48.796;9.026;2022-12-07T20:42:36;6.70;76.00
15298;DHT22;7750;48.796;9.026;2022-12-07T20:47:36;6.70;75.90
15298;DHT22;7750;48.796;9.026;2022-12-07T20:52:37;6.70;75.80
15298;DHT22;7750;48.796;9.026;2022-12-07T20:57:38;6.70;75.80
15298;DHT22;7750;48.796;9.026;2022-12-07T21:02:39;6.70;75.80
15298;DHT22;7750;48.796;9.026;2022-12-07T21:07:40;6.70;75.70
15298;DHT22;7750;48.796;9.026;2022-12-07T21:12:41;6.70;75.50
15298;DHT22;7750;48.796;9.026;2022-12-07T21:17:45;6.70;75.50
15298;DHT22;7750;48.796;9.026;2022-12-07T21:23:21;6.70;75.60
15298;DHT22;7750;48.796;9.026;2022-12-07T21:33:33;6.70;75.70
15298;DHT22;7750;48.796;9.026;2022-12-07T21:38:35;6.70;75.40
15298;DHT22;7750;48.796;9.026;2022-12-07T21:43:36;6.70;75.10
15298;DHT22;7750;48.796;9.026;2022-12-07T21:48:37;6.70;75.00
15298;DHT22;7750;48.796;9.026;2022-12-07T21:53:40;6.70;75.00
15298;DHT22;7750;48.796;9.026;2022-12-07T21:58:42;6.60;74.80
15298;DHT22;7750;48.796;9.026;2022-12-07T23:00:37;6.10;75.20
